sensor_id;sensor_type;location;lat;lon;timestamp;pressure;altitude;pressure_sealevel;temperature;humidity
60244;BME280;46106;51.468;5.814;2023-03-05T00:01:27;101925.31;;;4.66;100.00
60244;BME280;46106;51.468;5.814;2023-03-05T00:03:53;101922.69;;;4.63;100.00
60244;BME280;46106;51.468;5.814;2023-03-05T00:06:20;101916.50;;;4.59;100.00
60244;BME280;46106;51.468;5.814;2023-03-05T00:08:47;101916.41;;;4.63;100.00
60244;BME280;46106;51.468;5.814;2023-03-05T00:11:13;101919.72;;;4.71;100.00
60244;BME280;46106;51.468;5.814;2023-03-05T00:13:39;101918.81;;;4.70;100.00
60244;BME280;46106;51.468;5.814;2023-03-05T00:16:08;101917.50;;;4.57;100.00
60244;BME280;46106;51.468;5.814;2023-03-05T00:18:34;101924.75;;;4.56;100.00
60244;BME280;46106;51.468;5.814;2023-03-05T00:21:00;101912.19;;;4.54;100.00
60244;BME280;46106;51.468;5.814;2023-03-05T00:23:26;101918.66;;;4.50;100.00
60244;BME280;46106;51.468;5.814;2023-03-05T00:25:52;101908.75;;;4.49;100.00
60244;BME280;46106;51.468;5.814;2023-03-05T00:28:17;101918.00;;;4.43;100.00
60244;BME280;46106;51.468;5.814;2023-03-05T00:30:43;101909.94;;;4.41;100.00
60244;BME280;46106;51.468;5.814;2023-03-05T00:33:10;101909.03;;;4.41;100.00
60244;BME280;46106;51.468;5.814;2023-03-05T00:35:40;101908.97;;;4.42;100.00
60244;BME280;46106;51.468;5.814;2023-03-05T00:38:06;101902.44;;;4.48;100.00
60244;BME280;46106;51.468;5.814;2023-03-05T00:40:36;101906.00;;;4.50;100.00
60244;BME280;46106;51.468;5.814;2023-03-05T00:43:02;101905.38;;;4.42;100.00
60244;BME280;46106;51.468;5.814;2023-03-05T00:45:28;101898.00;;;4.46;100.00
60244;BME280;46106;51.468;5.814;2023-03-05T00:47:54;101896.91;;;4.51;100.00
60244;BME280;46106;51.468;5.814;2023-03-05T00:50:19;101890.78;;;4.46;100.00
60244;BME280;46106;51.468;5.814;2023-03-05T00:52:44;101883.41;;;4.50;100.00
60244;BME280;46106;51.468;5.814;2023-03-05T00:55:10;101883.31;;;4.53;100.00
60244;BME280;46106;51.468;5.814;2023-03-05T00:57:35;101880.47;;;4.56;100.00
60244;BME280;46106;51.468;5.814;2023-03-05T01:00:01;101886.50;;;4.64;100.00
60244;BME280;46106;51.468;5.814;2023-03-05T01:02:26;101876.63;;;4.62;100.00
60244;BME280;46106;51.468;5.814;2023-03-05T01:04:52;101870.41;;;4.59;100.00
60244;BME280;46106;51.468;5.814;2023-03-05T01:07:17;101874.38;;;4.49;100.00
60244;BME280;46106;51.468;5.814;2023-03-05T01:09:43;101876.03;;;4.53;100.00
60244;BME280;46106;51.468;5.814;2023-03-05T01:12:08;101869.38;;;4.62;100.00
60244;BME280;46106;51.468;5.814;2023-03-05T01:14:35;101869.81;;;4.51;100.00
60244;BME280;46106;51.468;5.814;2023-03-05T01:17:01;101865.59;;;4.42;100.00
60244;BME280;46106;51.468;5.814;2023-03-05T01:19:27;101867.63;;;4.36;100.00
60244;BME280;46106;51.468;5.814;2023-03-05T01:21:52;101849.84;;;4.29;100.00
60244;BME280;46106;51.468;5.814;2023-03-05T01:24:20;101863.44;;;4.27;100.00
60244;BME280;46106;51.468;5.814;2023-03-05T01:26:45;101868.66;;;4.33;100.00
60244;BME280;46106;51.468;5.814;2023-03-05T01:29:11;101858.56;;;4.37;100.00
60244;BME280;46106;51.468;5.814;2023-03-05T01:31:37;101855.03;;;4.35;100.00
60244;BME280;46106;51.468;5.814;2023-03-05T01:34:02;101849.06;;;4.25;100.00
60244;BME280;46106;51.468;5.814;2023-03-05T01:36:28;101848.16;;;4.24;100.00
60244;BME280;46106;51.468;5.814;2023-03-05T01:38:53;101841.28;;;4.16;100.00
60244;BME280;46106;51.468;5.814;2023-03-05T01:41:19;101832.25;;;4.15;100.00
60244;BME280;46106;51.468;5.814;2023-03-05T01:43:46;101830.38;;;4.17;100.00
60244;BME280;46106;51.468;5.814;2023-03-05T01:48:41;101827.06;;;4.09;100.00
60244;BME280;46106;51.468;5.814;2023-03-05T01:51:08;101817.03;;;4.11;100.00
60244;BME280;46106;51.468;5.814;2023-03-05T01:53:34;101820.16;;;4.00;100.00
60244;BME280;46106;51.468;5.814;2023-03-05T01:56:00;101815.78;;;3.96;100.00
60244;BME280;46106;51.468;5.814;2023-03-05T01:58:25;101811.41;;;3.92;100.00
60244;BME280;46106;51.468;5.814;2023-03-05T02:00:52;101814.75;;;4.00;100.00
60244;BME280;46106;51.468;5.814;2023-03-05T02:03:21;101804.06;;;3.96;100.00
60244;BME280;46106;51.468;5.814;2023-03-05T02:05:47;101802.78;;;4.06;100.00
60244;BME280;46106;51.468;5.814;2023-03-05T02:08:16;101803.38;;;4.14;100.00
60244;BME280;46106;51.468;5.814;2023-03-05T02:10:44;101804.44;;;4.10;100.00
60244;BME280;46106;51.468;5.814;2023-03-05T02:13:17;101793.63;;;4.10;100.00
60244;BME280;46106;51.468;5.814;2023-03-05T02:15:43;101793.31;;;4.18;100.00
60244;BME280;46106;51.468;5.814;2023-03-05T02:18:09;101791.50;;;4.18;100.00
60244;BME280;46106;51.468;5.814;2023-03-05T02:21:02;101783.66;;;4.11;100.00
60244;BME280;46106;51.468;5.814;2023-03-05T02:23:33;101788.97;;;4.14;100.00
60244;BME280;46106;51.468;5.814;2023-03-05T02:26:02;101788.19;;;4.10;100.00
60244;BME280;46106;51.468;5.814;2023-03-05T02:30:58;101774.81;;;4.05;100.00
60244;BME280;46106;51.468;5.814;2023-03-05T02:33:24;101781.16;;;4.04;100.00
60244;BME280;46106;51.468;5.814;2023-03-05T02:35:50;101773.19;;;4.00;100.00
60244;BME280;46106;51.468;5.814;2023-03-05T02:38:17;101770.25;;;4.06;100.00
60244;BME280;46106;51.468;5.814;2023-03-05T02:40:43;101773.94;;;4.05;100.00
60244;BME280;46106;51.468;5.814;2023-03-05T02:43:09;101761.91;;;4.12;100.00
60244;BME280;46106;51.468;5.814;2023-03-05T02:45:35;101763.97;;;4.05;100.00
60244;BME280;46106;51.468;5.814;2023-03-05T02:48:01;101764.94;;;4.03;100.00
60244;BME280;46106;51.468;5.814;2023-03-05T02:50:27;101755.13;;;4.00;100.00
60244;BME280;46106;51.468;5.814;2023-03-05T02:52:53;101755.13;;;4.00;100.00
60244;BME280;46106;51.468;5.814;2023-03-05T02:55:19;101748.00;;;3.98;100.00
60244;BME280;46106;51.468;5.814;2023-03-05T02:57:44;101742.22;;;4.07;100.00
60244;BME280;46106;51.468;5.814;2023-03-05T03:00:10;101740.63;;;4.01;100.00
60244;BME280;46106;51.468;5.814;2023-03-05T03:02:36;101737.84;;;4.03;100.00
60244;BME280;46106;51.468;5.814;2023-03-05T03:05:02;101728.78;;;4.04;100.00
60244;BME280;46106;51.468;5.814;2023-03-05T03:07:27;101727.63;;;4.11;100.00
60244;BME280;46106;51.468;5.814;2023-03-05T03:09:54;101727.97;;;4.02;100.00
60244;BME280;46106;51.468;5.814;2023-03-05T03:12:19;101734.22;;;4.04;100.00
60244;BME280;46106;51.468;5.814;2023-03-05T03:14:44;101730.16;;;3.92;100.00
60244;BME280;46106;51.468;5.814;2023-03-05T03:17:13;101723.16;;;3.85;100.00
60244;BME280;46106;51.468;5.814;2023-03-05T03:19:39;101721.16;;;3.90;100.00
60244;BME280;46106;51.468;5.814;2023-03-05T03:22:06;101705.16;;;3.84;100.00
60244;BME280;46106;51.468;5.814;2023-03-05T03:24:33;101705.16;;;3.84;100.00
60244;BME280;46106;51.468;5.814;2023-03-05T03:26:59;101701.91;;;3.74;100.00
60244;BME280;46106;51.468;5.814;2023-03-05T03:29:25;101701.16;;;3.71;100.00
60244;BME280;46106;51.468;5.814;2023-03-05T03:31:50;101692.88;;;3.74;100.00
60244;BME280;46106;51.468;5.814;2023-03-05T03:34:16;101698.97;;;3.80;100.00
60244;BME280;46106;51.468;5.814;2023-03-05T03:36:43;101689.13;;;3.78;100.00
60244;BME280;46106;51.468;5.814;2023-03-05T03:39:09;101693.63;;;3.79;100.00
60244;BME280;46106;51.468;5.814;2023-03-05T03:41:36;101684.72;;;3.75;100.00
60244;BME280;46106;51.468;5.814;2023-03-05T03:44:02;101680.84;;;3.82;100.00
60244;BME280;46106;51.468;5.814;2023-03-05T03:46:31;101679.13;;;3.80;100.00
60244;BME280;46106;51.468;5.814;2023-03-05T03:48:57;101667.59;;;3.75;100.00
60244;BME280;46106;51.468;5.814;2023-03-05T03:51:22;101663.94;;;3.76;100.00
60244;BME280;46106;51.468;5.814;2023-03-05T03:53:47;101674.91;;;3.73;100.00
60244;BME280;46106;51.468;5.814;2023-03-05T03:56:13;101668.78;;;3.67;100.00
60244;BME280;46106;51.468;5.814;2023-03-05T03:58:39;101664.06;;;3.73;100.00
60244;BME280;46106;51.468;5.814;2023-03-05T04:01:04;101664.94;;;3.73;100.00
60244;BME280;46106;51.468;5.814;2023-03-05T04:03:29;101661.88;;;3.82;100.00
60244;BME280;46106;51.468;5.814;2023-03-05T04:05:55;101656.75;;;3.75;100.00
60244;BME280;46106;51.468;5.814;2023-03-05T04:08:20;101659.28;;;3.79;100.00
60244;BME280;46106;51.468;5.814;2023-03-05T04:10:46;101654.81;;;3.78;100.00
60244;BME280;46106;51.468;5.814;2023-03-05T04:13:11;101647.81;;;3.73;100.00
60244;BME280;46106;51.468;5.814;2023-03-05T04:15:36;101651.38;;;3.73;100.00
60244;BME280;46106;51.468;5.814;2023-03-05T04:18:02;101639.03;;;3.66;100.00
60244;BME280;46106;51.468;5.814;2023-03-05T04:20:27;101645.09;;;3.73;100.00
60244;BME280;46106;51.468;5.814;2023-03-05T04:22:53;101645.28;;;3.68;100.00
60244;BME280;46106;51.468;5.814;2023-03-05T04:25:19;101650.47;;;3.74;100.00
60244;BME280;46106;51.468;5.814;2023-03-05T04:27:44;101639.38;;;3.80;100.00
60244;BME280;46106;51.468;5.814;2023-03-05T04:30:12;101645.88;;;3.76;100.00
60244;BME280;46106;51.468;5.814;2023-03-05T04:32:41;101650.69;;;3.68;100.00
60244;BME280;46106;51.468;5.814;2023-03-05T04:35:06;101644.94;;;3.77;100.00
60244;BME280;46106;51.468;5.814;2023-03-05T04:37:32;101639.50;;;3.77;100.00
60244;BME280;46106;51.468;5.814;2023-03-05T04:39:57;101643.38;;;3.70;100.00
60244;BME280;46106;51.468;5.814;2023-03-05T04:42:23;101643.16;;;3.76;100.00
60244;BME280;46106;51.468;5.814;2023-03-05T04:44:49;101632.38;;;3.75;100.00
60244;BME280;46106;51.468;5.814;2023-03-05T04:47:15;101640.28;;;3.81;100.00
60244;BME280;46106;51.468;5.814;2023-03-05T04:49:41;101633.06;;;3.80;100.00
60244;BME280;46106;51.468;5.814;2023-03-05T04:52:07;101632.22;;;3.79;100.00
60244;BME280;46106;51.468;5.814;2023-03-05T04:54:34;101630.03;;;3.89;100.00
60244;BME280;46106;51.468;5.814;2023-03-05T04:56:59;101618.44;;;3.85;100.00
60244;BME280;46106;51.468;5.814;2023-03-05T04:59:25;101620.25;;;3.85;100.00
60244;BME280;46106;51.468;5.814;2023-03-05T05:01:50;101618.44;;;3.85;100.00
60244;BME280;46106;51.468;5.814;2023-03-05T05:04:16;101618.19;;;3.68;100.00
60244;BME280;46106;51.468;5.814;2023-03-05T05:06:41;101616.81;;;3.80;100.00
60244;BME280;46106;51.468;5.814;2023-03-05T05:09:07;101614.19;;;3.78;100.00
60244;BME280;46106;51.468;5.814;2023-03-05T05:11:32;101613.13;;;3.82;100.00
60244;BME280;46106;51.468;5.814;2023-03-05T05:13:58;101617.84;;;3.77;100.00
60244;BME280;46106;51.468;5.814;2023-03-05T05:16:23;101609.84;;;3.74;100.00
60244;BME280;46106;51.468;5.814;2023-03-05T05:18:49;101605.47;;;3.70;100.00
60244;BME280;46106;51.468;5.814;2023-03-05T05:21:14;101615.09;;;3.79;100.00
60244;BME280;46106;51.468;5.814;2023-03-05T05:23:40;101604.25;;;3.79;100.00
60244;BME280;46106;51.468;5.814;2023-03-05T05:26:06;101606.47;;;3.91;100.00
60244;BME280;46106;51.468;5.814;2023-03-05T05:28:32;101596.56;;;3.90;100.00
60244;BME280;46106;51.468;5.814;2023-03-05T05:30:58;101604.84;;;3.87;100.00
60244;BME280;46106;51.468;5.814;2023-03-05T05:33:24;101603.88;;;3.88;100.00
60244;BME280;46106;51.468;5.814;2023-03-05T05:35:49;101587.91;;;3.80;100.00
60244;BME280;46106;51.468;5.814;2023-03-05T05:38:15;101588.97;;;3.76;100.00
60244;BME280;46106;51.468;5.814;2023-03-05T05:40:41;101588.00;;;3.79;100.00
60244;BME280;46106;51.468;5.814;2023-03-05T05:43:07;101598.84;;;3.79;100.00
60244;BME280;46106;51.468;5.814;2023-03-05T05:45:32;101604.03;;;3.83;100.00
60244;BME280;46106;51.468;5.814;2023-03-05T05:47:58;101599.41;;;3.87;100.00
60244;BME280;46106;51.468;5.814;2023-03-05T05:50:23;101602.03;;;3.89;100.00
60244;BME280;46106;51.468;5.814;2023-03-05T05:52:50;101595.81;;;3.86;100.00
60244;BME280;46106;51.468;5.814;2023-03-05T05:55:16;101593.16;;;3.85;100.00
60244;BME280;46106;51.468;5.814;2023-03-05T05:57:42;101586.84;;;3.84;100.00
60244;BME280;46106;51.468;5.814;2023-03-05T06:00:09;101586.00;;;3.84;100.00
60244;BME280;46106;51.468;5.814;2023-03-05T06:02:39;101583.06;;;3.89;100.00
60244;BME280;46106;51.468;5.814;2023-03-05T06:05:06;101574.47;;;4.01;100.00
60244;BME280;46106;51.468;5.814;2023-03-05T06:07:33;101579.66;;;3.83;100.00
60244;BME280;46106;51.468;5.814;2023-03-05T06:09:59;101566.63;;;3.71;100.00
60244;BME280;46106;51.468;5.814;2023-03-05T06:12:24;101570.59;;;3.84;100.00
60244;BME280;46106;51.468;5.814;2023-03-05T06:14:50;101569.16;;;3.76;100.00
60244;BME280;46106;51.468;5.814;2023-03-05T06:17:15;101571.59;;;3.82;100.00
60244;BME280;46106;51.468;5.814;2023-03-05T06:19:41;101573.66;;;3.75;100.00
60244;BME280;46106;51.468;5.814;2023-03-05T06:22:06;101568.19;;;3.77;100.00
60244;BME280;46106;51.468;5.814;2023-03-05T06:24:31;101570.09;;;3.75;100.00
60244;BME280;46106;51.468;5.814;2023-03-05T06:26:57;101558.50;;;3.71;100.00
60244;BME280;46106;51.468;5.814;2023-03-05T06:29:22;101561.03;;;3.76;100.00
60244;BME280;46106;51.468;5.814;2023-03-05T06:31:48;101561.09;;;3.74;100.00
60244;BME280;46106;51.468;5.814;2023-03-05T06:34:13;101562.88;;;3.74;100.00
60244;BME280;46106;51.468;5.814;2023-03-05T06:36:38;101560.81;;;3.80;100.00
60244;BME280;46106;51.468;5.814;2023-03-05T06:39:04;101566.56;;;3.73;100.00
60244;BME280;46106;51.468;5.814;2023-03-05T06:41:30;101566.00;;;3.86;100.00
60244;BME280;46106;51.468;5.814;2023-03-05T06:43:59;101563.06;;;3.93;100.00
60244;BME280;46106;51.468;5.814;2023-03-05T06:46:28;101567.84;;;3.86;100.00
60244;BME280;46106;51.468;5.814;2023-03-05T06:48:57;101565.78;;;3.93;100.00
60244;BME280;46106;51.468;5.814;2023-03-05T06:51:31;101565.94;;;3.88;100.00
60244;BME280;46106;51.468;5.814;2023-03-05T06:54:05;101566.38;;;3.77;100.00
60244;BME280;46106;51.468;5.814;2023-03-05T06:56:33;101562.13;;;3.70;100.00
60244;BME280;46106;51.468;5.814;2023-03-05T06:58:59;101560.00;;;3.78;100.00
60244;BME280;46106;51.468;5.814;2023-03-05T07:01:24;101563.69;;;3.77;100.00
60244;BME280;46106;51.468;5.814;2023-03-05T07:03:52;101564.84;;;3.94;100.00
60244;BME280;46106;51.468;5.814;2023-03-05T07:06:18;101558.22;;;3.79;100.00
60244;BME280;46106;51.468;5.814;2023-03-05T07:08:43;101558.78;;;3.87;100.00
60244;BME280;46106;51.468;5.814;2023-03-05T07:11:14;101562.25;;;3.91;100.00
60244;BME280;46106;51.468;5.814;2023-03-05T07:13:41;101557.63;;;3.93;100.00
60244;BME280;46106;51.468;5.814;2023-03-05T07:16:09;101560.97;;;3.99;100.00
60244;BME280;46106;51.468;5.814;2023-03-05T07:18:37;101560.13;;;3.99;100.00
60244;BME280;46106;51.468;5.814;2023-03-05T07:21:04;101548.47;;;3.97;100.00
60244;BME280;46106;51.468;5.814;2023-03-05T07:23:29;101552.97;;;3.74;100.00
60244;BME280;46106;51.468;5.814;2023-03-05T07:25:55;101550.56;;;3.89;100.00
60244;BME280;46106;51.468;5.814;2023-03-05T07:28:21;101553.47;;;3.84;100.00
60244;BME280;46106;51.468;5.814;2023-03-05T07:31:00;101559.78;;;3.84;100.00
60244;BME280;46106;51.468;5.814;2023-03-05T07:33:26;101552.47;;;3.86;100.00
60244;BME280;46106;51.468;5.814;2023-03-05T07:35:52;101557.13;;;3.83;100.00
60244;BME280;46106;51.468;5.814;2023-03-05T07:38:18;101555.22;;;3.85;100.00
60244;BME280;46106;51.468;5.814;2023-03-05T07:40:44;101556.88;;;3.89;100.00
60244;BME280;46106;51.468;5.814;2023-03-05T07:43:09;101546.81;;;3.93;100.00
60244;BME280;46106;51.468;5.814;2023-03-05T07:45:41;101549.28;;;3.99;100.00
60244;BME280;46106;51.468;5.814;2023-03-05T07:48:07;101549.03;;;4.05;100.00
60244;BME280;46106;51.468;5.814;2023-03-05T07:50:33;101545.06;;;4.14;100.00
60244;BME280;46106;51.468;5.814;2023-03-05T07:52:58;101547.31;;;4.24;100.00
60244;BME280;46106;51.468;5.814;2023-03-05T07:55:24;101549.13;;;4.24;100.00
60244;BME280;46106;51.468;5.814;2023-03-05T07:57:49;101542.91;;;4.22;100.00
60244;BME280;46106;51.468;5.814;2023-03-05T08:00:16;101546.50;;;4.22;100.00
60244;BME280;46106;51.468;5.814;2023-03-05T08:02:41;101538.91;;;4.31;100.00
60244;BME280;46106;51.468;5.814;2023-03-05T08:05:07;101529.03;;;4.30;100.00
60244;BME280;46106;51.468;5.814;2023-03-05T08:07:32;101540.00;;;4.27;100.00
60244;BME280;46106;51.468;5.814;2023-03-05T08:09:57;101531.03;;;4.24;100.00
60244;BME280;46106;51.468;5.814;2023-03-05T08:12:23;101533.75;;;4.24;100.00
60244;BME280;46106;51.468;5.814;2023-03-05T08:14:48;101521.97;;;4.26;100.00
60244;BME280;46106;51.468;5.814;2023-03-05T08:17:15;101535.16;;;4.13;100.00
60244;BME280;46106;51.468;5.814;2023-03-05T08:19:41;101528.16;;;4.07;100.00
60244;BME280;46106;51.468;5.814;2023-03-05T08:22:06;101525.81;;;3.98;100.00
60244;BME280;46106;51.468;5.814;2023-03-05T08:24:31;101534.81;;;3.98;100.00
60244;BME280;46106;51.468;5.814;2023-03-05T08:26:57;101521.84;;;4.07;100.00
60244;BME280;46106;51.468;5.814;2023-03-05T08:29:26;101530.69;;;4.12;100.00
60244;BME280;46106;51.468;5.814;2023-03-05T08:31:51;101508.03;;;4.13;100.00
60244;BME280;46106;51.468;5.814;2023-03-05T08:34:19;101514.50;;;4.10;100.00
60244;BME280;46106;51.468;5.814;2023-03-05T08:36:45;101511.44;;;4.18;100.00
60244;BME280;46106;51.468;5.814;2023-03-05T08:39:10;101509.34;;;4.24;100.00
60244;BME280;46106;51.468;5.814;2023-03-05T08:41:36;101502.06;;;4.47;100.00
60244;BME280;46106;51.468;5.814;2023-03-05T08:44:02;101508.25;;;4.71;100.00
60244;BME280;46106;51.468;5.814;2023-03-05T08:46:28;101505.44;;;5.14;100.00
60244;BME280;46106;51.468;5.814;2023-03-05T08:48:53;101493.19;;;5.05;100.00
60244;BME280;46106;51.468;5.814;2023-03-05T08:51:21;101506.50;;;5.30;100.00
60244;BME280;46106;51.468;5.814;2023-03-05T08:53:49;101500.66;;;5.40;100.00
60244;BME280;46106;51.468;5.814;2023-03-05T08:56:15;101493.47;;;5.58;100.00
60244;BME280;46106;51.468;5.814;2023-03-05T08:58:41;101487.66;;;5.46;100.00
60244;BME280;46106;51.468;5.814;2023-03-05T09:01:06;101490.72;;;5.39;100.00
60244;BME280;46106;51.468;5.814;2023-03-05T09:03:32;101491.53;;;5.22;100.00
60244;BME280;46106;51.468;5.814;2023-03-05T09:06:02;101491.97;;;5.31;100.00
60244;BME280;46106;51.468;5.814;2023-03-05T09:08:28;101489.03;;;5.36;100.00
60244;BME280;46106;51.468;5.814;2023-03-05T09:10:54;101481.78;;;5.37;100.00
60244;BME280;46106;51.468;5.814;2023-03-05T09:13:20;101488.19;;;5.55;100.00
60244;BME280;46106;51.468;5.814;2023-03-05T09:15:53;101482.75;;;5.55;100.00
60244;BME280;46106;51.468;5.814;2023-03-05T09:18:18;101482.16;;;5.48;100.00
60244;BME280;46106;51.468;5.814;2023-03-05T09:20:45;101478.41;;;5.31;100.00
60244;BME280;46106;51.468;5.814;2023-03-05T09:23:11;101480.81;;;5.38;100.00
60244;BME280;46106;51.468;5.814;2023-03-05T09:25:39;101464.16;;;5.45;100.00
60244;BME280;46106;51.468;5.814;2023-03-05T09:28:04;101467.25;;;5.57;100.00
60244;BME280;46106;51.468;5.814;2023-03-05T09:30:30;101473.91;;;5.68;100.00
60244;BME280;46106;51.468;5.814;2023-03-05T09:32:55;101472.41;;;5.80;100.00
60244;BME280;46106;51.468;5.814;2023-03-05T09:35:21;101459.34;;;5.88;100.00
60244;BME280;46106;51.468;5.814;2023-03-05T09:37:46;101460.78;;;5.97;100.00
60244;BME280;46106;51.468;5.814;2023-03-05T09:40:17;101452.19;;;6.05;100.00
60244;BME280;46106;51.468;5.814;2023-03-05T09:45:38;101446.94;;;6.19;100.00
60244;BME280;46106;51.468;5.814;2023-03-05T09:48:21;101445.50;;;6.12;100.00
60244;BME280;46106;51.468;5.814;2023-03-05T09:50:50;101443.28;;;6.20;100.00
60244;BME280;46106;51.468;5.814;2023-03-05T09:53:22;101446.88;;;6.21;100.00
60244;BME280;46106;51.468;5.814;2023-03-05T09:56:03;101439.59;;;6.21;100.00
60244;BME280;46106;51.468;5.814;2023-03-05T09:58:39;101440.69;;;6.00;100.00
60244;BME280;46106;51.468;5.814;2023-03-05T10:01:09;101440.22;;;6.09;100.00
60244;BME280;46106;51.468;5.814;2023-03-05T10:04:03;101439.69;;;6.20;100.00
60244;BME280;46106;51.468;5.814;2023-03-05T10:06:34;101442.41;;;6.20;100.00
60244;BME280;46106;51.468;5.814;2023-03-05T10:11:55;101430.25;;;6.27;100.00
60244;BME280;46106;51.468;5.814;2023-03-05T10:14:29;101432.66;;;6.33;100.00
60244;BME280;46106;51.468;5.814;2023-03-05T10:25:12;101419.69;;;6.21;100.00
60244;BME280;46106;51.468;5.814;2023-03-05T10:27:47;101420.47;;;6.23;100.00
60244;BME280;46106;51.468;5.814;2023-03-05T10:33:23;101414.06;;;6.06;100.00
60244;BME280;46106;51.468;5.814;2023-03-05T10:39:15;101408.31;;;5.95;100.00
60244;BME280;46106;51.468;5.814;2023-03-05T10:44:13;101406.00;;;6.05;100.00
60244;BME280;46106;51.468;5.814;2023-03-05T10:46:40;101394.72;;;5.95;100.00
60244;BME280;46106;51.468;5.814;2023-03-05T10:49:21;101399.31;;;5.93;100.00
60244;BME280;46106;51.468;5.814;2023-03-05T10:52:00;101403.78;;;5.77;100.00
60244;BME280;46106;51.468;5.814;2023-03-05T10:54:32;101405.13;;;5.68;100.00
60244;BME280;46106;51.468;5.814;2023-03-05T10:59:50;101392.72;;;5.62;100.00
60244;BME280;46106;51.468;5.814;2023-03-05T11:02:18;101397.88;;;5.86;100.00
60244;BME280;46106;51.468;5.814;2023-03-05T11:04:44;101388.03;;;5.83;100.00
60244;BME280;46106;51.468;5.814;2023-03-05T11:09:41;101391.44;;;6.06;100.00
60244;BME280;46106;51.468;5.814;2023-03-05T11:12:16;101383.63;;;6.35;100.00
60244;BME280;46106;51.468;5.814;2023-03-05T11:17:43;101378.34;;;6.14;100.00
60244;BME280;46106;51.468;5.814;2023-03-05T11:26:21;101373.38;;;6.40;100.00
60244;BME280;46106;51.468;5.814;2023-03-05T11:34:03;101367.50;;;6.48;100.00
60244;BME280;46106;51.468;5.814;2023-03-05T11:39:15;101364.03;;;6.11;100.00
60244;BME280;46106;51.468;5.814;2023-03-05T11:41:43;101348.75;;;6.08;100.00
60244;BME280;46106;51.468;5.814;2023-03-05T11:44:14;101349.03;;;6.03;100.00
60244;BME280;46106;51.468;5.814;2023-03-05T11:46:46;101340.38;;;6.13;100.00
60244;BME280;46106;51.468;5.814;2023-03-05T11:49:16;101339.97;;;6.20;100.00
60244;BME280;46106;51.468;5.814;2023-03-05T11:52:06;101340.44;;;6.29;100.00
60244;BME280;46106;51.468;5.814;2023-03-05T11:54:41;101329.72;;;6.08;100.00
60244;BME280;46106;51.468;5.814;2023-03-05T11:57:14;101322.31;;;6.12;100.00
60244;BME280;46106;51.468;5.814;2023-03-05T11:59:41;101321.09;;;6.00;100.00
60244;BME280;46106;51.468;5.814;2023-03-05T12:02:16;101312.53;;;6.25;100.00
60244;BME280;46106;51.468;5.814;2023-03-05T12:04:43;101312.16;;;6.49;100.00
60244;BME280;46106;51.468;5.814;2023-03-05T12:07:11;101308.81;;;6.43;100.00
60244;BME280;46106;51.468;5.814;2023-03-05T12:09:42;101310.59;;;6.60;100.00
60244;BME280;46106;51.468;5.814;2023-03-05T12:17:47;101292.28;;;6.64;100.00
60244;BME280;46106;51.468;5.814;2023-03-05T12:22:49;101282.53;;;6.76;100.00
60244;BME280;46106;51.468;5.814;2023-03-05T12:25:52;101277.28;;;6.89;100.00
60244;BME280;46106;51.468;5.814;2023-03-05T12:30:58;101266.75;;;6.98;100.00
60244;BME280;46106;51.468;5.814;2023-03-05T12:33:36;101262.53;;;7.25;100.00
60244;BME280;46106;51.468;5.814;2023-03-05T12:38:52;101254.53;;;6.90;100.00
60244;BME280;46106;51.468;5.814;2023-03-05T12:46:33;101238.53;;;6.84;100.00
60244;BME280;46106;51.468;5.814;2023-03-05T12:51:49;101243.38;;;6.47;100.00
60244;BME280;46106;51.468;5.814;2023-03-05T12:54:25;101225.63;;;6.39;100.00
60244;BME280;46106;51.468;5.814;2023-03-05T12:56:54;101232.66;;;6.43;100.00
60244;BME280;46106;51.468;5.814;2023-03-05T12:59:22;101217.47;;;6.55;100.00
60244;BME280;46106;51.468;5.814;2023-03-05T13:02:00;101215.28;;;6.30;100.00
60244;BME280;46106;51.468;5.814;2023-03-05T13:04:29;101209.13;;;6.42;100.00
60244;BME280;46106;51.468;5.814;2023-03-05T13:07:02;101204.41;;;6.46;100.00
60244;BME280;46106;51.468;5.814;2023-03-05T13:09:30;101204.31;;;6.63;100.00
60244;BME280;46106;51.468;5.814;2023-03-05T13:11:58;101197.50;;;6.72;100.00
60244;BME280;46106;51.468;5.814;2023-03-05T13:16:52;101189.91;;;6.93;100.00
60244;BME280;46106;51.468;5.814;2023-03-05T13:19:18;101189.34;;;6.72;100.00
60244;BME280;46106;51.468;5.814;2023-03-05T13:21:43;101182.81;;;6.91;100.00
60244;BME280;46106;51.468;5.814;2023-03-05T13:24:17;101178.22;;;6.91;100.00
60244;BME280;46106;51.468;5.814;2023-03-05T13:26:44;101173.75;;;6.90;100.00
60244;BME280;46106;51.468;5.814;2023-03-05T13:29:18;101153.47;;;6.80;100.00
60244;BME280;46106;51.468;5.814;2023-03-05T13:34:19;101162.75;;;6.92;100.00
60244;BME280;46106;51.468;5.814;2023-03-05T13:36:51;101162.84;;;6.90;100.00
60244;BME280;46106;51.468;5.814;2023-03-05T13:39:21;101159.78;;;6.96;100.00
60244;BME280;46106;51.468;5.814;2023-03-05T13:42:13;101148.81;;;6.82;100.00
60244;BME280;46106;51.468;5.814;2023-03-05T13:44:39;101149.03;;;6.63;100.00
60244;BME280;46106;51.468;5.814;2023-03-05T13:47:14;101155.59;;;6.91;100.00
60244;BME280;46106;51.468;5.814;2023-03-05T13:49:40;101150.34;;;6.72;100.00
60244;BME280;46106;51.468;5.814;2023-03-05T13:52:06;101135.78;;;6.73;100.00
60244;BME280;46106;51.468;5.814;2023-03-05T13:54:31;101143.94;;;6.57;100.00
60244;BME280;46106;51.468;5.814;2023-03-05T13:57:03;101127.53;;;6.58;100.00
60244;BME280;46106;51.468;5.814;2023-03-05T13:59:36;101135.94;;;6.70;100.00
60244;BME280;46106;51.468;5.814;2023-03-05T14:02:16;101118.94;;;6.66;100.00
60244;BME280;46106;51.468;5.814;2023-03-05T14:04:44;101126.31;;;6.64;100.00
60244;BME280;46106;51.468;5.814;2023-03-05T14:09:47;101124.28;;;6.52;100.00
60244;BME280;46106;51.468;5.814;2023-03-05T14:12:37;101121.00;;;6.77;100.00